sensor_id;sensor_type;location;lat;lon;timestamp;P1;durP1;ratioP1;P2;durP2;ratioP2
3847;SDS011;1939;48.720;9.166;2023-02-22T00:00:47;17.13;;;7.33;;
3847;SDS011;1939;48.720;9.166;2023-02-22T00:03:25;18.90;;;8.80;;
3847;SDS011;1939;48.720;9.166;2023-02-22T00:05:52;13.47;;;7.73;;
3847;SDS011;1939;48.720;9.166;2023-02-22T00:08:19;17.70;;;8.90;;
3847;SDS011;1939;48.720;9.166;2023-02-22T00:10:45;25.73;;;10.40;;
3847;SDS011;1939;48.720;9.166;2023-02-22T00:13:11;21.20;;;9.33;;
3847;SDS011;1939;48.720;9.166;2023-02-22T00:15:37;16.00;;;7.77;;
3847;SDS011;1939;48.720;9.166;2023-02-22T00:18:05;18.33;;;9.73;;
3847;SDS011;1939;48.720;9.166;2023-02-22T00:20:31;20.10;;;8.33;;
3847;SDS011;1939;48.720;9.166;2023-02-22T00:22:56;20.30;;;9.03;;
3847;SDS011;1939;48.720;9.166;2023-02-22T00:25:22;17.63;;;7.67;;
3847;SDS011;1939;48.720;9.166;2023-02-22T00:27:48;29.33;;;7.60;;
3847;SDS011;1939;48.720;9.166;2023-02-22T00:30:18;15.87;;;8.30;;
3847;SDS011;1939;48.720;9.166;2023-02-22T00:32:47;15.53;;;7.67;;
3847;SDS011;1939;48.720;9.166;2023-02-22T00:35:13;15.43;;;8.10;;
3847;SDS011;1939;48.720;9.166;2023-02-22T00:37:38;17.43;;;8.17;;
3847;SDS011;1939;48.720;9.166;2023-02-22T00:40:06;16.73;;;8.90;;
3847;SDS011;1939;48.720;9.166;2023-02-22T00:42:32;16.50;;;7.57;;
3847;SDS011;1939;48.720;9.166;2023-02-22T00:44:57;15.30;;;6.83;;
3847;SDS011;1939;48.720;9.166;2023-02-22T00:47:22;16.37;;;8.50;;
3847;SDS011;1939;48.720;9.166;2023-02-22T00:49:47;14.43;;;7.33;;
3847;SDS011;1939;48.720;9.166;2023-02-22T00:52:13;23.00;;;8.10;;
3847;SDS011;1939;48.720;9.166;2023-02-22T00:54:38;14.90;;;6.60;;
3847;SDS011;1939;48.720;9.166;2023-02-22T00:57:03;15.60;;;8.40;;
3847;SDS011;1939;48.720;9.166;2023-02-22T00:59:28;12.73;;;6.90;;
3847;SDS011;1939;48.720;9.166;2023-02-22T01:01:55;13.60;;;7.53;;
3847;SDS011;1939;48.720;9.166;2023-02-22T01:04:20;15.07;;;7.40;;
3847;SDS011;1939;48.720;9.166;2023-02-22T01:06:45;14.93;;;8.40;;
3847;SDS011;1939;48.720;9.166;2023-02-22T01:09:10;11.80;;;8.07;;
3847;SDS011;1939;48.720;9.166;2023-02-22T01:11:35;12.00;;;6.97;;
3847;SDS011;1939;48.720;9.166;2023-02-22T01:14:00;18.23;;;7.20;;
3847;SDS011;1939;48.720;9.166;2023-02-22T01:16:26;16.43;;;7.50;;
3847;SDS011;1939;48.720;9.166;2023-02-22T01:18:51;12.23;;;7.07;;
3847;SDS011;1939;48.720;9.166;2023-02-22T01:21:16;13.23;;;7.43;;
3847;SDS011;1939;48.720;9.166;2023-02-22T01:23:45;13.30;;;7.50;;
3847;SDS011;1939;48.720;9.166;2023-02-22T01:26:10;17.27;;;8.47;;
3847;SDS011;1939;48.720;9.166;2023-02-22T01:28:36;16.70;;;7.37;;
3847;SDS011;1939;48.720;9.166;2023-02-22T01:31:01;13.67;;;6.80;;
3847;SDS011;1939;48.720;9.166;2023-02-22T01:33:27;12.70;;;6.80;;
3847;SDS011;1939;48.720;9.166;2023-02-22T01:35:52;13.67;;;7.27;;
3847;SDS011;1939;48.720;9.166;2023-02-22T01:38:17;14.27;;;6.43;;
3847;SDS011;1939;48.720;9.166;2023-02-22T01:40:45;20.30;;;8.10;;
3847;SDS011;1939;48.720;9.166;2023-02-22T01:43:29;12.57;;;7.27;;
3847;SDS011;1939;48.720;9.166;2023-02-22T01:46:05;14.20;;;6.40;;
3847;SDS011;1939;48.720;9.166;2023-02-22T01:48:37;19.27;;;6.97;;
3847;SDS011;1939;48.720;9.166;2023-02-22T01:51:06;11.60;;;6.70;;
3847;SDS011;1939;48.720;9.166;2023-02-22T01:53:39;14.70;;;7.77;;
3847;SDS011;1939;48.720;9.166;2023-02-22T01:56:05;12.37;;;7.90;;
3847;SDS011;1939;48.720;9.166;2023-02-22T01:58:32;14.37;;;7.43;;
3847;SDS011;1939;48.720;9.166;2023-02-22T02:00:57;16.37;;;7.50;;
3847;SDS011;1939;48.720;9.166;2023-02-22T02:03:24;13.90;;;7.60;;
3847;SDS011;1939;48.720;9.166;2023-02-22T02:05:51;22.73;;;7.30;;
3847;SDS011;1939;48.720;9.166;2023-02-22T02:08:23;11.90;;;7.60;;
3847;SDS011;1939;48.720;9.166;2023-02-22T02:10:49;12.80;;;6.83;;
3847;SDS011;1939;48.720;9.166;2023-02-22T02:13:15;17.43;;;8.40;;
3847;SDS011;1939;48.720;9.166;2023-02-22T02:15:40;15.30;;;7.70;;
3847;SDS011;1939;48.720;9.166;2023-02-22T02:18:06;15.07;;;6.90;;
3847;SDS011;1939;48.720;9.166;2023-02-22T02:23:13;14.33;;;8.33;;
3847;SDS011;1939;48.720;9.166;2023-02-22T02:25:50;16.80;;;7.57;;
3847;SDS011;1939;48.720;9.166;2023-02-22T02:31:02;11.07;;;7.53;;
3847;SDS011;1939;48.720;9.166;2023-02-22T02:38:43;15.70;;;8.67;;
3847;SDS011;1939;48.720;9.166;2023-02-22T02:41:17;11.50;;;7.07;;
3847;SDS011;1939;48.720;9.166;2023-02-22T02:43:54;15.93;;;8.37;;
3847;SDS011;1939;48.720;9.166;2023-02-22T02:46:31;15.53;;;7.17;;
3847;SDS011;1939;48.720;9.166;2023-02-22T02:49:01;13.40;;;7.80;;
3847;SDS011;1939;48.720;9.166;2023-02-22T02:51:29;13.27;;;7.97;;
3847;SDS011;1939;48.720;9.166;2023-02-22T02:53:56;12.27;;;7.53;;
3847;SDS011;1939;48.720;9.166;2023-02-22T02:56:22;18.70;;;7.43;;
3847;SDS011;1939;48.720;9.166;2023-02-22T02:58:51;20.80;;;7.70;;
3847;SDS011;1939;48.720;9.166;2023-02-22T03:01:23;20.33;;;8.07;;
3847;SDS011;1939;48.720;9.166;2023-02-22T03:06:49;17.43;;;7.40;;
3847;SDS011;1939;48.720;9.166;2023-02-22T03:12:03;12.23;;;7.70;;
3847;SDS011;1939;48.720;9.166;2023-02-22T03:17:00;15.50;;;8.47;;
3847;SDS011;1939;48.720;9.166;2023-02-22T03:19:33;17.07;;;7.50;;
3847;SDS011;1939;48.720;9.166;2023-02-22T03:22:01;18.57;;;8.27;;
3847;SDS011;1939;48.720;9.166;2023-02-22T03:27:02;19.40;;;7.97;;
3847;SDS011;1939;48.720;9.166;2023-02-22T03:29:29;15.00;;;8.50;;
3847;SDS011;1939;48.720;9.166;2023-02-22T03:31:59;14.17;;;7.20;;
3847;SDS011;1939;48.720;9.166;2023-02-22T03:34:26;14.27;;;7.90;;
3847;SDS011;1939;48.720;9.166;2023-02-22T03:36:57;14.10;;;7.10;;
3847;SDS011;1939;48.720;9.166;2023-02-22T03:39:23;21.63;;;8.43;;
3847;SDS011;1939;48.720;9.166;2023-02-22T03:41:55;17.73;;;8.13;;
3847;SDS011;1939;48.720;9.166;2023-02-22T03:44:22;13.10;;;7.73;;
3847;SDS011;1939;48.720;9.166;2023-02-22T03:46:49;24.00;;;9.87;;
3847;SDS011;1939;48.720;9.166;2023-02-22T03:49:59;13.90;;;7.97;;
3847;SDS011;1939;48.720;9.166;2023-02-22T03:52:03;19.40;;;9.97;;
3847;SDS011;1939;48.720;9.166;2023-02-22T03:54:29;15.63;;;9.43;;
3847;SDS011;1939;48.720;9.166;2023-02-22T03:56:55;19.87;;;10.37;;
3847;SDS011;1939;48.720;9.166;2023-02-22T03:59:22;20.07;;;10.03;;
3847;SDS011;1939;48.720;9.166;2023-02-22T04:01:51;20.27;;;11.30;;
3847;SDS011;1939;48.720;9.166;2023-02-22T04:04:16;18.37;;;10.60;;
3847;SDS011;1939;48.720;9.166;2023-02-22T04:06:42;16.23;;;9.20;;
3847;SDS011;1939;48.720;9.166;2023-02-22T04:09:07;23.53;;;9.30;;
3847;SDS011;1939;48.720;9.166;2023-02-22T04:11:33;14.90;;;8.37;;
3847;SDS011;1939;48.720;9.166;2023-02-22T04:13:58;17.10;;;8.77;;
3847;SDS011;1939;48.720;9.166;2023-02-22T04:16:24;18.53;;;7.93;;
3847;SDS011;1939;48.720;9.166;2023-02-22T04:18:50;18.40;;;8.37;;
3847;SDS011;1939;48.720;9.166;2023-02-22T04:21:15;15.90;;;7.50;;
3847;SDS011;1939;48.720;9.166;2023-02-22T04:23:40;19.70;;;7.83;;
3847;SDS011;1939;48.720;9.166;2023-02-22T04:26:05;17.60;;;7.57;;
3847;SDS011;1939;48.720;9.166;2023-02-22T04:28:30;16.80;;;7.77;;
3847;SDS011;1939;48.720;9.166;2023-02-22T04:30:55;20.63;;;9.33;;
3847;SDS011;1939;48.720;9.166;2023-02-22T04:33:21;14.50;;;9.07;;
3847;SDS011;1939;48.720;9.166;2023-02-22T04:35:46;15.77;;;7.90;;
3847;SDS011;1939;48.720;9.166;2023-02-22T04:38:11;16.17;;;8.80;;
3847;SDS011;1939;48.720;9.166;2023-02-22T04:40:36;12.80;;;7.43;;
3847;SDS011;1939;48.720;9.166;2023-02-22T04:43:02;13.70;;;8.47;;
3847;SDS011;1939;48.720;9.166;2023-02-22T04:45:27;13.67;;;7.70;;
3847;SDS011;1939;48.720;9.166;2023-02-22T04:47:52;12.30;;;7.70;;
3847;SDS011;1939;48.720;9.166;2023-02-22T04:50:17;15.10;;;7.97;;
3847;SDS011;1939;48.720;9.166;2023-02-22T04:52:43;14.07;;;8.00;;
3847;SDS011;1939;48.720;9.166;2023-02-22T04:55:08;14.97;;;7.77;;
3847;SDS011;1939;48.720;9.166;2023-02-22T04:57:33;16.13;;;8.27;;
3847;SDS011;1939;48.720;9.166;2023-02-22T04:59:59;17.70;;;9.20;;
3847;SDS011;1939;48.720;9.166;2023-02-22T05:02:24;16.30;;;7.93;;
3847;SDS011;1939;48.720;9.166;2023-02-22T05:04:49;10.60;;;7.07;;
3847;SDS011;1939;48.720;9.166;2023-02-22T05:07:14;14.20;;;8.27;;
3847;SDS011;1939;48.720;9.166;2023-02-22T05:09:40;17.30;;;8.70;;
3847;SDS011;1939;48.720;9.166;2023-02-22T05:12:05;13.33;;;8.20;;
3847;SDS011;1939;48.720;9.166;2023-02-22T05:14:30;12.50;;;8.43;;
3847;SDS011;1939;48.720;9.166;2023-02-22T05:16:56;15.10;;;7.90;;
3847;SDS011;1939;48.720;9.166;2023-02-22T05:19:21;15.67;;;8.00;;
3847;SDS011;1939;48.720;9.166;2023-02-22T05:21:47;17.37;;;8.70;;
3847;SDS011;1939;48.720;9.166;2023-02-22T05:24:12;28.47;;;9.20;;
3847;SDS011;1939;48.720;9.166;2023-02-22T05:26:37;18.20;;;8.20;;
3847;SDS011;1939;48.720;9.166;2023-02-22T05:29:04;13.10;;;8.60;;
3847;SDS011;1939;48.720;9.166;2023-02-22T05:31:29;13.50;;;8.37;;
3847;SDS011;1939;48.720;9.166;2023-02-22T05:33:54;17.30;;;7.90;;
3847;SDS011;1939;48.720;9.166;2023-02-22T05:36:20;16.60;;;9.07;;
3847;SDS011;1939;48.720;9.166;2023-02-22T05:38:45;19.40;;;8.43;;
3847;SDS011;1939;48.720;9.166;2023-02-22T05:41:10;15.73;;;8.87;;
3847;SDS011;1939;48.720;9.166;2023-02-22T05:43:36;13.17;;;8.20;;
3847;SDS011;1939;48.720;9.166;2023-02-22T05:46:01;27.07;;;15.20;;
3847;SDS011;1939;48.720;9.166;2023-02-22T05:48:26;18.17;;;10.30;;
3847;SDS011;1939;48.720;9.166;2023-02-22T05:50:52;17.33;;;9.60;;
3847;SDS011;1939;48.720;9.166;2023-02-22T05:53:17;17.23;;;8.57;;
3847;SDS011;1939;48.720;9.166;2023-02-22T05:55:42;16.97;;;8.57;;
3847;SDS011;1939;48.720;9.166;2023-02-22T05:58:07;16.77;;;9.43;;
3847;SDS011;1939;48.720;9.166;2023-02-22T06:00:32;18.47;;;8.10;;
3847;SDS011;1939;48.720;9.166;2023-02-22T06:03:02;19.37;;;8.53;;
3847;SDS011;1939;48.720;9.166;2023-02-22T06:05:28;13.20;;;7.00;;
3847;SDS011;1939;48.720;9.166;2023-02-22T06:07:53;21.10;;;7.77;;
3847;SDS011;1939;48.720;9.166;2023-02-22T06:10:19;11.90;;;7.07;;
3847;SDS011;1939;48.720;9.166;2023-02-22T06:12:45;12.83;;;7.40;;
3847;SDS011;1939;48.720;9.166;2023-02-22T06:15:10;16.23;;;8.50;;
3847;SDS011;1939;48.720;9.166;2023-02-22T06:17:35;17.27;;;9.57;;
3847;SDS011;1939;48.720;9.166;2023-02-22T06:20:00;20.03;;;8.73;;
3847;SDS011;1939;48.720;9.166;2023-02-22T06:22:26;15.50;;;9.43;;
3847;SDS011;1939;48.720;9.166;2023-02-22T06:24:51;13.73;;;7.93;;
3847;SDS011;1939;48.720;9.166;2023-02-22T06:27:16;17.57;;;9.13;;
3847;SDS011;1939;48.720;9.166;2023-02-22T06:29:45;19.63;;;9.07;;
3847;SDS011;1939;48.720;9.166;2023-02-22T06:32:13;23.50;;;8.63;;
3847;SDS011;1939;48.720;9.166;2023-02-22T06:34:38;16.00;;;8.30;;
3847;SDS011;1939;48.720;9.166;2023-02-22T06:37:05;20.13;;;8.33;;
3847;SDS011;1939;48.720;9.166;2023-02-22T06:39:30;13.37;;;8.57;;
3847;SDS011;1939;48.720;9.166;2023-02-22T06:41:55;15.40;;;8.37;;
3847;SDS011;1939;48.720;9.166;2023-02-22T06:44:21;16.33;;;9.20;;
3847;SDS011;1939;48.720;9.166;2023-02-22T06:46:47;24.90;;;11.37;;
3847;SDS011;1939;48.720;9.166;2023-02-22T06:49:13;19.90;;;10.73;;
3847;SDS011;1939;48.720;9.166;2023-02-22T06:51:38;17.10;;;9.27;;
3847;SDS011;1939;48.720;9.166;2023-02-22T06:54:03;16.00;;;9.97;;
3847;SDS011;1939;48.720;9.166;2023-02-22T06:56:30;23.03;;;10.00;;
3847;SDS011;1939;48.720;9.166;2023-02-22T06:58:55;21.63;;;10.27;;
3847;SDS011;1939;48.720;9.166;2023-02-22T07:01:20;17.10;;;9.40;;
3847;SDS011;1939;48.720;9.166;2023-02-22T07:03:47;18.73;;;10.60;;
3847;SDS011;1939;48.720;9.166;2023-02-22T07:06:12;13.30;;;8.80;;
3847;SDS011;1939;48.720;9.166;2023-02-22T07:08:37;15.63;;;8.03;;
3847;SDS011;1939;48.720;9.166;2023-02-22T07:11:03;12.80;;;7.30;;
3847;SDS011;1939;48.720;9.166;2023-02-22T07:13:28;15.07;;;7.30;;
3847;SDS011;1939;48.720;9.166;2023-02-22T07:15:53;12.77;;;7.77;;
3847;SDS011;1939;48.720;9.166;2023-02-22T07:18:18;22.67;;;8.57;;
3847;SDS011;1939;48.720;9.166;2023-02-22T07:20:44;15.60;;;8.23;;
3847;SDS011;1939;48.720;9.166;2023-02-22T07:23:12;15.67;;;7.50;;
3847;SDS011;1939;48.720;9.166;2023-02-22T07:25:37;16.27;;;8.20;;
3847;SDS011;1939;48.720;9.166;2023-02-22T07:28:02;15.73;;;7.43;;
3847;SDS011;1939;48.720;9.166;2023-02-22T07:30:28;12.90;;;7.93;;
3847;SDS011;1939;48.720;9.166;2023-02-22T07:32:58;13.77;;;7.20;;
3847;SDS011;1939;48.720;9.166;2023-02-22T07:35:25;13.03;;;7.53;;
3847;SDS011;1939;48.720;9.166;2023-02-22T07:37:51;17.63;;;8.53;;
3847;SDS011;1939;48.720;9.166;2023-02-22T07:40:16;17.00;;;7.53;;
3847;SDS011;1939;48.720;9.166;2023-02-22T07:42:51;11.63;;;7.83;;
3847;SDS011;1939;48.720;9.166;2023-02-22T07:45:17;81.73;;;14.20;;
3847;SDS011;1939;48.720;9.166;2023-02-22T07:47:42;13.13;;;8.10;;
3847;SDS011;1939;48.720;9.166;2023-02-22T07:50:07;81.30;;;16.07;;
3847;SDS011;1939;48.720;9.166;2023-02-22T07:52:33;40.33;;;10.30;;
3847;SDS011;1939;48.720;9.166;2023-02-22T07:54:58;106.57;;;17.30;;
3847;SDS011;1939;48.720;9.166;2023-02-22T07:57:24;27.17;;;9.10;;
3847;SDS011;1939;48.720;9.166;2023-02-22T07:59:49;14.63;;;8.20;;
3847;SDS011;1939;48.720;9.166;2023-02-22T08:02:15;30.00;;;9.67;;
3847;SDS011;1939;48.720;9.166;2023-02-22T08:04:41;16.20;;;8.57;;
3847;SDS011;1939;48.720;9.166;2023-02-22T08:07:06;12.00;;;7.50;;
3847;SDS011;1939;48.720;9.166;2023-02-22T08:09:31;11.53;;;6.93;;
3847;SDS011;1939;48.720;9.166;2023-02-22T08:11:56;13.53;;;8.03;;
3847;SDS011;1939;48.720;9.166;2023-02-22T08:14:22;16.90;;;7.33;;
3847;SDS011;1939;48.720;9.166;2023-02-22T08:16:47;12.17;;;7.80;;
3847;SDS011;1939;48.720;9.166;2023-02-22T08:19:12;20.73;;;8.17;;
3847;SDS011;1939;48.720;9.166;2023-02-22T08:21:37;16.50;;;8.40;;
3847;SDS011;1939;48.720;9.166;2023-02-22T08:24:02;18.10;;;8.03;;
3847;SDS011;1939;48.720;9.166;2023-02-22T08:26:28;20.47;;;8.20;;
3847;SDS011;1939;48.720;9.166;2023-02-22T08:28:53;19.53;;;8.30;;
3847;SDS011;1939;48.720;9.166;2023-02-22T08:31:18;16.20;;;8.73;;
3847;SDS011;1939;48.720;9.166;2023-02-22T08:33:46;17.10;;;7.80;;
3847;SDS011;1939;48.720;9.166;2023-02-22T08:36:11;15.30;;;7.90;;
3847;SDS011;1939;48.720;9.166;2023-02-22T08:38:36;19.33;;;8.00;;
3847;SDS011;1939;48.720;9.166;2023-02-22T08:41:02;16.17;;;7.93;;
3847;SDS011;1939;48.720;9.166;2023-02-22T08:43:27;21.03;;;8.23;;
3847;SDS011;1939;48.720;9.166;2023-02-22T08:45:52;17.90;;;8.07;;
3847;SDS011;1939;48.720;9.166;2023-02-22T08:48:18;11.03;;;6.97;;
3847;SDS011;1939;48.720;9.166;2023-02-22T08:50:43;9.90;;;8.20;;
3847;SDS011;1939;48.720;9.166;2023-02-22T08:53:09;12.33;;;7.77;;
3847;SDS011;1939;48.720;9.166;2023-02-22T08:55:35;14.53;;;7.40;;
3847;SDS011;1939;48.720;9.166;2023-02-22T08:58:01;16.00;;;7.40;;
3847;SDS011;1939;48.720;9.166;2023-02-22T09:00:28;16.33;;;7.70;;
3847;SDS011;1939;48.720;9.166;2023-02-22T09:02:56;14.43;;;7.17;;
3847;SDS011;1939;48.720;9.166;2023-02-22T09:05:22;12.53;;;7.23;;
3847;SDS011;1939;48.720;9.166;2023-02-22T09:07:47;12.13;;;6.70;;
3847;SDS011;1939;48.720;9.166;2023-02-22T09:10:13;12.90;;;6.90;;
3847;SDS011;1939;48.720;9.166;2023-02-22T09:12:42;20.63;;;6.73;;
3847;SDS011;1939;48.720;9.166;2023-02-22T09:15:07;10.33;;;6.60;;
3847;SDS011;1939;48.720;9.166;2023-02-22T09:17:32;15.00;;;6.90;;
3847;SDS011;1939;48.720;9.166;2023-02-22T09:20:01;16.30;;;7.20;;
3847;SDS011;1939;48.720;9.166;2023-02-22T09:22:26;14.63;;;7.80;;
3847;SDS011;1939;48.720;9.166;2023-02-22T09:24:51;15.40;;;7.30;;
3847;SDS011;1939;48.720;9.166;2023-02-22T09:27:17;14.33;;;6.50;;
3847;SDS011;1939;48.720;9.166;2023-02-22T09:29:46;20.03;;;6.80;;
3847;SDS011;1939;48.720;9.166;2023-02-22T09:32:11;11.43;;;6.93;;
3847;SDS011;1939;48.720;9.166;2023-02-22T09:34:36;16.83;;;6.60;;
3847;SDS011;1939;48.720;9.166;2023-02-22T09:37:01;12.70;;;6.70;;
3847;SDS011;1939;48.720;9.166;2023-02-22T09:39:28;10.80;;;5.80;;
3847;SDS011;1939;48.720;9.166;2023-02-22T09:42:08;11.23;;;6.73;;
3847;SDS011;1939;48.720;9.166;2023-02-22T09:44:39;11.50;;;6.70;;
3847;SDS011;1939;48.720;9.166;2023-02-22T09:47:09;10.77;;;6.27;;
3847;SDS011;1939;48.720;9.166;2023-02-22T09:49:52;12.27;;;6.63;;
3847;SDS011;1939;48.720;9.166;2023-02-22T09:54:53;16.17;;;6.77;;
3847;SDS011;1939;48.720;9.166;2023-02-22T09:57:24;13.03;;;8.13;;
3847;SDS011;1939;48.720;9.166;2023-02-22T09:59:56;17.10;;;7.70;;
3847;SDS011;1939;48.720;9.166;2023-02-22T10:07:35;14.00;;;9.60;;
3847;SDS011;1939;48.720;9.166;2023-02-22T10:10:03;16.33;;;9.07;;
3847;SDS011;1939;48.720;9.166;2023-02-22T10:15:19;16.30;;;7.43;;
3847;SDS011;1939;48.720;9.166;2023-02-22T10:20:20;13.03;;;6.60;;
3847;SDS011;1939;48.720;9.166;2023-02-22T10:22:55;10.73;;;7.27;;
3847;SDS011;1939;48.720;9.166;2023-02-22T10:25:22;11.57;;;6.20;;
3847;SDS011;1939;48.720;9.166;2023-02-22T10:30:29;12.17;;;6.30;;
3847;SDS011;1939;48.720;9.166;2023-02-22T10:33:01;11.30;;;4.80;;
3847;SDS011;1939;48.720;9.166;2023-02-22T10:35:28;11.10;;;5.53;;
3847;SDS011;1939;48.720;9.166;2023-02-22T10:38:05;11.97;;;6.37;;
3847;SDS011;1939;48.720;9.166;2023-02-22T10:40:31;9.83;;;5.23;;
3847;SDS011;1939;48.720;9.166;2023-02-22T10:43:00;12.03;;;5.47;;
3847;SDS011;1939;48.720;9.166;2023-02-22T10:45:29;19.93;;;5.87;;
3847;SDS011;1939;48.720;9.166;2023-02-22T10:48:00;7.90;;;5.47;;
3847;SDS011;1939;48.720;9.166;2023-02-22T10:50:28;11.53;;;6.30;;
3847;SDS011;1939;48.720;9.166;2023-02-22T10:52:53;10.47;;;6.17;;
3847;SDS011;1939;48.720;9.166;2023-02-22T10:55:20;16.00;;;5.77;;
3847;SDS011;1939;48.720;9.166;2023-02-22T10:57:46;11.40;;;6.60;;
3847;SDS011;1939;48.720;9.166;2023-02-22T11:00:18;11.23;;;6.27;;
3847;SDS011;1939;48.720;9.166;2023-02-22T11:02:51;11.30;;;6.47;;
3847;SDS011;1939;48.720;9.166;2023-02-22T11:05:27;12.33;;;6.93;;
3847;SDS011;1939;48.720;9.166;2023-02-22T11:08:12;14.50;;;6.43;;
3847;SDS011;1939;48.720;9.166;2023-02-22T11:10:38;10.23;;;6.73;;
3847;SDS011;1939;48.720;9.166;2023-02-22T11:13:15;9.10;;;6.30;;
3847;SDS011;1939;48.720;9.166;2023-02-22T11:15:40;15.07;;;7.17;;
3847;SDS011;1939;48.720;9.166;2023-02-22T11:18:05;20.40;;;6.93;;
3847;SDS011;1939;48.720;9.166;2023-02-22T11:20:32;16.37;;;7.53;;
3847;SDS011;1939;48.720;9.166;2023-02-22T11:22:59;12.40;;;6.33;;
3847;SDS011;1939;48.720;9.166;2023-02-22T11:25:26;16.23;;;7.63;;
3847;SDS011;1939;48.720;9.166;2023-02-22T11:27:52;15.27;;;7.40;;
3847;SDS011;1939;48.720;9.166;2023-02-22T11:30:20;15.13;;;6.80;;
3847;SDS011;1939;48.720;9.166;2023-02-22T11:32:53;14.43;;;7.40;;
3847;SDS011;1939;48.720;9.166;2023-02-22T11:37:44;12.37;;;7.57;;
3847;SDS011;1939;48.720;9.166;2023-02-22T11:40:16;16.47;;;9.27;;
3847;SDS011;1939;48.720;9.166;2023-02-22T11:42:44;10.60;;;7.57;;
3847;SDS011;1939;48.720;9.166;2023-02-22T11:45:19;15.37;;;10.07;;
3847;SDS011;1939;48.720;9.166;2023-02-22T11:47:54;20.27;;;10.17;;
3847;SDS011;1939;48.720;9.166;2023-02-22T11:50:25;17.93;;;9.60;;
3847;SDS011;1939;48.720;9.166;2023-02-22T11:52:58;13.50;;;8.83;;
3847;SDS011;1939;48.720;9.166;2023-02-22T11:55:28;11.90;;;8.60;;
3847;SDS011;1939;48.720;9.166;2023-02-22T12:03:27;14.20;;;9.20;;
3847;SDS011;1939;48.720;9.166;2023-02-22T12:11:26;19.47;;;9.13;;
3847;SDS011;1939;48.720;9.166;2023-02-22T12:14:06;18.37;;;9.33;;
3847;SDS011;1939;48.720;9.166;2023-02-22T12:21:27;14.27;;;9.93;;
3847;SDS011;1939;48.720;9.166;2023-02-22T12:26:33;15.30;;;9.53;;
3847;SDS011;1939;48.720;9.166;2023-02-22T12:29:25;17.73;;;9.83;;
3847;SDS011;1939;48.720;9.166;2023-02-22T12:31:46;17.73;;;10.63;;
3847;SDS011;1939;48.720;9.166;2023-02-22T12:34:25;13.10;;;8.60;;
3847;SDS011;1939;48.720;9.166;2023-02-22T12:39:45;18.53;;;9.80;;
3847;SDS011;1939;48.720;9.166;2023-02-22T12:42:18;15.23;;;8.50;;
3847;SDS011;1939;48.720;9.166;2023-02-22T12:44:46;17.57;;;8.50;;
3847;SDS011;1939;48.720;9.166;2023-02-22T12:47:15;17.40;;;9.73;;
3847;SDS011;1939;48.720;9.166;2023-02-22T12:49:43;19.93;;;10.83;;
3847;SDS011;1939;48.720;9.166;2023-02-22T12:55:43;23.40;;;10.70;;
3847;SDS011;1939;48.720;9.166;2023-02-22T13:02:36;15.27;;;10.13;;
3847;SDS011;1939;48.720;9.166;2023-02-22T13:05:03;18.70;;;8.63;;
3847;SDS011;1939;48.720;9.166;2023-02-22T13:10:10;22.97;;;10.37;;
3847;SDS011;1939;48.720;9.166;2023-02-22T13:15:56;19.70;;;10.03;;
3847;SDS011;1939;48.720;9.166;2023-02-22T13:18:29;19.57;;;9.37;;
3847;SDS011;1939;48.720;9.166;2023-02-22T13:25:54;16.97;;;10.40;;
3847;SDS011;1939;48.720;9.166;2023-02-22T13:28:27;26.73;;;11.40;;
3847;SDS011;1939;48.720;9.166;2023-02-22T13:31:12;16.30;;;9.47;;
3847;SDS011;1939;48.720;9.166;2023-02-22T13:44:20;16.50;;;9.97;;
3847;SDS011;1939;48.720;9.166;2023-02-22T13:47:05;19.20;;;11.20;;
3847;SDS011;1939;48.720;9.166;2023-02-22T13:49:37;16.67;;;10.00;;
3847;SDS011;1939;48.720;9.166;2023-02-22T13:52:07;23.27;;;10.27;;
3847;SDS011;1939;48.720;9.166;2023-02-22T13:54:39;17.47;;;10.17;;
3847;SDS011;1939;48.720;9.166;2023-02-22T14:08:37;16.40;;;9.00;;
3847;SDS011;1939;48.720;9.166;2023-02-22T14:10:54;14.20;;;8.77;;
3847;SDS011;1939;48.720;9.166;2023-02-22T14:13:20;20.00;;;10.27;;
3847;SDS011;1939;48.720;9.166;2023-02-22T14:18:41;16.37;;;10.40;;
3847;SDS011;1939;48.720;9.166;2023-02-22T14:21:07;19.63;;;10.10;;
3847;SDS011;1939;48.720;9.166;2023-02-22T14:31:35;16.80;;;11.10;;
3847;SDS011;1939;48.720;9.166;2023-02-22T14:37:08;24.13;;;12.37;;
3847;SDS011;1939;48.720;9.166;2023-02-22T14:39:48;20.07;;;12.00;;
3847;SDS011;1939;48.720;9.166;2023-02-22T14:42:23;20.90;;;10.57;;
3847;SDS011;1939;48.720;9.166;2023-02-22T14:50:41;16.70;;;10.43;;
3847;SDS011;1939;48.720;9.166;2023-02-22T14:55:56;19.57;;;10.73;;
3847;SDS011;1939;48.720;9.166;2023-02-22T14:58:28;18.93;;;11.27;;
3847;SDS011;1939;48.720;9.166;2023-02-22T15:00:55;22.07;;;11.60;;
3847;SDS011;1939;48.720;9.166;2023-02-22T15:05:46;17.67;;;10.73;;
3847;SDS011;1939;48.720;9.166;2023-02-22T15:08:14;24.43;;;12.07;;
3847;SDS011;1939;48.720;9.166;2023-02-22T15:10:42;18.17;;;10.63;;
3847;SDS011;1939;48.720;9.166;2023-02-22T15:13:21;19.23;;;10.87;;
3847;SDS011;1939;48.720;9.166;2023-02-22T15:15:57;22.30;;;11.00;;
3847;SDS011;1939;48.720;9.166;2023-02-22T15:18:34;18.50;;;11.23;;
3847;SDS011;1939;48.720;9.166;2023-02-22T15:21:11;20.40;;;11.27;;
3847;SDS011;1939;48.720;9.166;2023-02-22T15:23:41;24.43;;;11.53;;
3847;SDS011;1939;48.720;9.166;2023-02-22T15:26:07;19.87;;;10.80;;
3847;SDS011;1939;48.720;9.166;2023-02-22T15:28:39;19.57;;;12.63;;
3847;SDS011;1939;48.720;9.166;2023-02-22T15:31:22;19.03;;;11.20;;
3847;SDS011;1939;48.720;9.166;2023-02-22T15:33:49;18.57;;;10.50;;
3847;SDS011;1939;48.720;9.166;2023-02-22T15:36:17;19.67;;;12.10;;
3847;SDS011;1939;48.720;9.166;2023-02-22T15:38:46;20.73;;;11.87;;
3847;SDS011;1939;48.720;9.166;2023-02-22T15:41:18;25.90;;;12.20;;
3847;SDS011;1939;48.720;9.166;2023-02-22T15:43:44;23.83;;;12.20;;
3847;SDS011;1939;48.720;9.166;2023-02-22T15:46:21;27.30;;;14.30;;
3847;SDS011;1939;48.720;9.166;2023-02-22T15:49:02;24.03;;;11.87;;
3847;SDS011;1939;48.720;9.166;2023-02-22T15:51:27;21.97;;;12.30;;
3847;SDS011;1939;48.720;9.166;2023-02-22T15:53:53;18.83;;;12.03;;
3847;SDS011;1939;48.720;9.166;2023-02-22T15:56:22;20.90;;;12.70;;
3847;SDS011;1939;48.720;9.166;2023-02-22T15:58:48;25.13;;;12.40;;
3847;SDS011;1939;48.720;9.166;2023-02-22T16:01:15;22.23;;;12.13;;
3847;SDS011;1939;48.720;9.166;2023-02-22T16:03:46;24.30;;;12.40;;
3847;SDS011;1939;48.720;9.166;2023-02-22T16:06:14;24.23;;;12.23;;
3847;SDS011;1939;48.720;9.166;2023-02-22T16:08:48;19.47;;;12.13;;
3847;SDS011;1939;48.720;9.166;2023-02-22T16:11:15;19.80;;;12.23;;
3847;SDS011;1939;48.720;9.166;2023-02-22T16:13:50;22.10;;;13.23;;
3847;SDS011;1939;48.720;9.166;2023-02-22T16:18:41;23.17;;;11.83;;
3847;SDS011;1939;48.720;9.166;2023-02-22T16:23:41;26.50;;;12.10;;
3847;SDS011;1939;48.720;9.166;2023-02-22T16:28:58;18.97;;;11.50;;
3847;SDS011;1939;48.720;9.166;2023-02-22T16:31:24;23.80;;;12.60;;
3847;SDS011;1939;48.720;9.166;2023-02-22T16:33:51;25.60;;;12.10;;
3847;SDS011;1939;48.720;9.166;2023-02-22T16:36:18;18.40;;;10.80;;
3847;SDS011;1939;48.720;9.166;2023-02-22T16:38:44;21.80;;;11.80;;
3847;SDS011;1939;48.720;9.166;2023-02-22T16:41:12;29.77;;;10.57;;
3847;SDS011;1939;48.720;9.166;2023-02-22T16:43:40;20.17;;;11.50;;
3847;SDS011;1939;48.720;9.166;2023-02-22T16:46:06;18.50;;;11.50;;
3847;SDS011;1939;48.720;9.166;2023-02-22T16:48:32;22.43;;;11.60;;
3847;SDS011;1939;48.720;9.166;2023-02-22T16:50:59;19.57;;;13.03;;
3847;SDS011;1939;48.720;9.166;2023-02-22T16:53:25;25.03;;;14.10;;
3847;SDS011;1939;48.720;9.166;2023-02-22T16:55:51;25.17;;;11.00;;
3847;SDS011;1939;48.720;9.166;2023-02-22T16:58:21;24.40;;;11.90;;
3847;SDS011;1939;48.720;9.166;2023-02-22T17:00:47;30.30;;;12.67;;
3847;SDS011;1939;48.720;9.166;2023-02-22T17:03:13;30.43;;;12.70;;
3847;SDS011;1939;48.720;9.166;2023-02-22T17:05:39;27.53;;;12.93;;
3847;SDS011;1939;48.720;9.166;2023-02-22T17:08:04;29.20;;;13.80;;
3847;SDS011;1939;48.720;9.166;2023-02-22T17:10:29;25.37;;;12.27;;
3847;SDS011;1939;48.720;9.166;2023-02-22T17:12:55;24.63;;;13.70;;
3847;SDS011;1939;48.720;9.166;2023-02-22T17:15:22;24.00;;;14.20;;